Terminal Aerodrome Forecast
Issued by NWS

Home | Current Version | Previous Version | Text Only | Print | Product List | Glossary On
Versions: 1 2 3 4 5 6 7 8 9 10 11 12 13 14 15 16 17 18 19 20 21 22 23 24 25 26 27 28 29 30 31 32
000
FTUS41 KCTP 180317 AAA
TAFBFD
TAF AMD
KBFD 180317Z 1803/1824 21003KT P6SM SCT015 BKN070
     FM180430 21004KT P6SM BKN015 OVC050
     FM180900 21004KT 4SM BR OVC010
     FM181400 21005KT 2SM BR VCSH OVC008=

USA.gov is the U.S. government's official web portal to all federal, state and local government web resources and services.